sensor_id;sensor_type;location;lat;lon;timestamp;P1;durP1;ratioP1;P2;durP2;ratioP2
14686;SDS011;7431;49.440;11.084;2023-06-22T00:02:17;7.47;;;6.50;;
14686;SDS011;7431;49.440;11.084;2023-06-22T00:04:43;7.90;;;6.43;;
14686;SDS011;7431;49.440;11.084;2023-06-22T00:07:09;7.93;;;5.78;;
14686;SDS011;7431;49.440;11.084;2023-06-22T00:09:36;6.85;;;6.10;;
14686;SDS011;7431;49.440;11.084;2023-06-22T00:12:02;8.07;;;5.88;;
14686;SDS011;7431;49.440;11.084;2023-06-22T00:14:31;6.90;;;5.85;;
14686;SDS011;7431;49.440;11.084;2023-06-22T00:16:57;9.13;;;5.70;;
14686;SDS011;7431;49.440;11.084;2023-06-22T00:19:24;6.32;;;5.53;;
14686;SDS011;7431;49.440;11.084;2023-06-22T00:21:50;6.47;;;5.53;;
14686;SDS011;7431;49.440;11.084;2023-06-22T00:24:20;8.43;;;5.93;;
14686;SDS011;7431;49.440;11.084;2023-06-22T00:26:47;6.95;;;6.20;;
14686;SDS011;7431;49.440;11.084;2023-06-22T00:29:13;7.82;;;5.88;;
14686;SDS011;7431;49.440;11.084;2023-06-22T00:31:39;7.97;;;6.43;;
14686;SDS011;7431;49.440;11.084;2023-06-22T00:34:05;8.90;;;5.75;;
14686;SDS011;7431;49.440;11.084;2023-06-22T00:36:33;6.80;;;6.07;;
14686;SDS011;7431;49.440;11.084;2023-06-22T00:38:59;8.00;;;5.25;;
14686;SDS011;7431;49.440;11.084;2023-06-22T00:41:25;6.80;;;6.10;;
14686;SDS011;7431;49.440;11.084;2023-06-22T00:43:53;6.85;;;5.78;;
14686;SDS011;7431;49.440;11.084;2023-06-22T00:46:19;7.95;;;6.07;;
14686;SDS011;7431;49.440;11.084;2023-06-22T00:48:46;6.93;;;5.45;;
14686;SDS011;7431;49.440;11.084;2023-06-22T00:51:12;7.22;;;5.72;;
14686;SDS011;7431;49.440;11.084;2023-06-22T00:53:38;6.68;;;5.78;;
14686;SDS011;7431;49.440;11.084;2023-06-22T00:56:04;6.38;;;5.55;;
14686;SDS011;7431;49.440;11.084;2023-06-22T00:58:31;6.78;;;5.47;;
14686;SDS011;7431;49.440;11.084;2023-06-22T01:00:57;6.78;;;5.72;;
14686;SDS011;7431;49.440;11.084;2023-06-22T01:03:24;6.82;;;5.60;;
14686;SDS011;7431;49.440;11.084;2023-06-22T01:05:50;6.47;;;5.30;;
14686;SDS011;7431;49.440;11.084;2023-06-22T01:08:40;8.30;;;5.72;;
14686;SDS011;7431;49.440;11.084;2023-06-22T01:11:07;7.53;;;5.57;;
14686;SDS011;7431;49.440;11.084;2023-06-22T01:13:45;7.35;;;5.78;;
14686;SDS011;7431;49.440;11.084;2023-06-22T01:16:14;7.20;;;6.47;;
14686;SDS011;7431;49.440;11.084;2023-06-22T01:18:42;6.63;;;5.40;;
14686;SDS011;7431;49.440;11.084;2023-06-22T01:21:09;6.60;;;5.18;;
14686;SDS011;7431;49.440;11.084;2023-06-22T01:26:34;6.93;;;5.80;;
14686;SDS011;7431;49.440;11.084;2023-06-22T01:29:01;5.82;;;4.97;;
14686;SDS011;7431;49.440;11.084;2023-06-22T01:31:29;7.80;;;5.25;;
14686;SDS011;7431;49.440;11.084;2023-06-22T01:34:01;6.68;;;5.55;;
14686;SDS011;7431;49.440;11.084;2023-06-22T01:36:27;7.40;;;5.82;;
14686;SDS011;7431;49.440;11.084;2023-06-22T01:38:54;7.57;;;5.60;;
14686;SDS011;7431;49.440;11.084;2023-06-22T01:41:20;6.38;;;5.55;;
14686;SDS011;7431;49.440;11.084;2023-06-22T01:43:47;6.53;;;5.43;;
14686;SDS011;7431;49.440;11.084;2023-06-22T01:46:14;9.55;;;6.20;;
14686;SDS011;7431;49.440;11.084;2023-06-22T01:48:40;8.35;;;5.40;;
14686;SDS011;7431;49.440;11.084;2023-06-22T01:51:07;9.18;;;5.43;;
14686;SDS011;7431;49.440;11.084;2023-06-22T01:53:33;8.38;;;6.22;;
14686;SDS011;7431;49.440;11.084;2023-06-22T01:55:59;6.78;;;6.07;;
14686;SDS011;7431;49.440;11.084;2023-06-22T01:58:26;6.28;;;5.40;;
14686;SDS011;7431;49.440;11.084;2023-06-22T02:00:56;9.57;;;6.13;;
14686;SDS011;7431;49.440;11.084;2023-06-22T02:03:25;8.13;;;5.60;;
14686;SDS011;7431;49.440;11.084;2023-06-22T02:05:56;8.63;;;6.35;;
14686;SDS011;7431;49.440;11.084;2023-06-22T02:08:25;8.13;;;6.10;;
14686;SDS011;7431;49.440;11.084;2023-06-22T02:10:53;7.97;;;5.78;;
14686;SDS011;7431;49.440;11.084;2023-06-22T02:13:20;6.45;;;5.75;;
14686;SDS011;7431;49.440;11.084;2023-06-22T02:15:46;6.90;;;5.57;;
14686;SDS011;7431;49.440;11.084;2023-06-22T02:18:13;7.25;;;6.00;;
14686;SDS011;7431;49.440;11.084;2023-06-22T02:20:39;8.35;;;6.13;;
14686;SDS011;7431;49.440;11.084;2023-06-22T02:23:06;7.70;;;5.63;;
14686;SDS011;7431;49.440;11.084;2023-06-22T02:25:32;6.78;;;5.50;;
14686;SDS011;7431;49.440;11.084;2023-06-22T02:27:58;5.72;;;5.22;;
14686;SDS011;7431;49.440;11.084;2023-06-22T02:30:24;7.97;;;6.07;;
14686;SDS011;7431;49.440;11.084;2023-06-22T02:32:50;7.60;;;5.70;;
14686;SDS011;7431;49.440;11.084;2023-06-22T02:35:23;10.65;;;5.90;;
14686;SDS011;7431;49.440;11.084;2023-06-22T02:37:49;7.55;;;5.55;;
14686;SDS011;7431;49.440;11.084;2023-06-22T02:40:16;8.02;;;5.47;;
14686;SDS011;7431;49.440;11.084;2023-06-22T02:42:42;7.70;;;6.13;;
14686;SDS011;7431;49.440;11.084;2023-06-22T02:45:09;6.85;;;6.15;;
14686;SDS011;7431;49.440;11.084;2023-06-22T02:47:35;6.93;;;5.47;;
14686;SDS011;7431;49.440;11.084;2023-06-22T02:50:01;7.25;;;6.35;;
14686;SDS011;7431;49.440;11.084;2023-06-22T02:52:27;7.15;;;5.53;;
14686;SDS011;7431;49.440;11.084;2023-06-22T02:54:53;6.25;;;5.50;;
14686;SDS011;7431;49.440;11.084;2023-06-22T02:57:19;7.38;;;6.18;;
14686;SDS011;7431;49.440;11.084;2023-06-22T02:59:45;6.43;;;5.25;;
14686;SDS011;7431;49.440;11.084;2023-06-22T03:02:11;7.30;;;5.45;;
14686;SDS011;7431;49.440;11.084;2023-06-22T03:04:37;6.13;;;5.40;;
14686;SDS011;7431;49.440;11.084;2023-06-22T03:07:03;5.85;;;5.18;;
14686;SDS011;7431;49.440;11.084;2023-06-22T03:09:29;7.05;;;5.45;;
14686;SDS011;7431;49.440;11.084;2023-06-22T03:11:55;6.35;;;5.35;;
14686;SDS011;7431;49.440;11.084;2023-06-22T03:14:21;5.22;;;4.72;;
14686;SDS011;7431;49.440;11.084;2023-06-22T03:16:47;5.63;;;5.05;;
14686;SDS011;7431;49.440;11.084;2023-06-22T03:19:13;7.13;;;5.53;;
14686;SDS011;7431;49.440;11.084;2023-06-22T03:21:39;7.90;;;6.22;;
14686;SDS011;7431;49.440;11.084;2023-06-22T03:24:05;7.22;;;6.07;;
14686;SDS011;7431;49.440;11.084;2023-06-22T03:26:32;7.72;;;6.13;;
14686;SDS011;7431;49.440;11.084;2023-06-22T03:28:58;7.32;;;6.50;;
14686;SDS011;7431;49.440;11.084;2023-06-22T03:31:24;9.05;;;6.13;;
14686;SDS011;7431;49.440;11.084;2023-06-22T03:33:50;7.53;;;6.22;;
14686;SDS011;7431;49.440;11.084;2023-06-22T03:36:16;7.03;;;6.10;;
14686;SDS011;7431;49.440;11.084;2023-06-22T03:38:48;6.93;;;6.22;;
14686;SDS011;7431;49.440;11.084;2023-06-22T03:41:15;8.77;;;6.15;;
14686;SDS011;7431;49.440;11.084;2023-06-22T03:43:41;7.70;;;6.32;;
14686;SDS011;7431;49.440;11.084;2023-06-22T03:46:07;6.88;;;6.15;;
14686;SDS011;7431;49.440;11.084;2023-06-22T03:48:33;8.63;;;6.40;;
14686;SDS011;7431;49.440;11.084;2023-06-22T03:50:59;8.15;;;6.07;;
14686;SDS011;7431;49.440;11.084;2023-06-22T03:53:25;6.78;;;5.57;;
14686;SDS011;7431;49.440;11.084;2023-06-22T03:55:51;6.78;;;6.10;;
14686;SDS011;7431;49.440;11.084;2023-06-22T03:58:18;6.50;;;5.60;;
14686;SDS011;7431;49.440;11.084;2023-06-22T04:00:45;6.85;;;5.65;;
14686;SDS011;7431;49.440;11.084;2023-06-22T04:03:11;8.40;;;5.78;;
14686;SDS011;7431;49.440;11.084;2023-06-22T04:05:38;7.68;;;5.75;;
14686;SDS011;7431;49.440;11.084;2023-06-22T04:08:04;6.63;;;5.60;;
14686;SDS011;7431;49.440;11.084;2023-06-22T04:10:30;9.07;;;5.63;;
14686;SDS011;7431;49.440;11.084;2023-06-22T04:12:56;7.15;;;5.53;;
14686;SDS011;7431;49.440;11.084;2023-06-22T04:15:22;6.05;;;5.45;;
14686;SDS011;7431;49.440;11.084;2023-06-22T04:17:48;6.95;;;5.88;;
14686;SDS011;7431;49.440;11.084;2023-06-22T04:20:14;6.35;;;5.53;;
14686;SDS011;7431;49.440;11.084;2023-06-22T04:22:40;5.90;;;5.28;;
14686;SDS011;7431;49.440;11.084;2023-06-22T04:25:06;6.30;;;5.70;;
14686;SDS011;7431;49.440;11.084;2023-06-22T04:27:35;5.75;;;5.15;;
14686;SDS011;7431;49.440;11.084;2023-06-22T04:30:06;7.03;;;6.25;;
14686;SDS011;7431;49.440;11.084;2023-06-22T04:32:33;5.95;;;5.35;;
14686;SDS011;7431;49.440;11.084;2023-06-22T04:35:01;5.90;;;5.25;;
14686;SDS011;7431;49.440;11.084;2023-06-22T04:37:27;6.07;;;5.40;;
14686;SDS011;7431;49.440;11.084;2023-06-22T04:39:53;7.68;;;5.88;;
14686;SDS011;7431;49.440;11.084;2023-06-22T04:42:19;6.57;;;5.75;;
14686;SDS011;7431;49.440;11.084;2023-06-22T04:44:45;6.15;;;5.18;;
14686;SDS011;7431;49.440;11.084;2023-06-22T04:47:11;6.22;;;5.63;;
14686;SDS011;7431;49.440;11.084;2023-06-22T04:49:37;8.27;;;5.47;;
14686;SDS011;7431;49.440;11.084;2023-06-22T04:52:05;7.93;;;5.28;;
14686;SDS011;7431;49.440;11.084;2023-06-22T04:54:32;5.70;;;5.10;;
14686;SDS011;7431;49.440;11.084;2023-06-22T04:56:59;6.93;;;5.43;;
14686;SDS011;7431;49.440;11.084;2023-06-22T04:59:28;6.55;;;4.78;;
14686;SDS011;7431;49.440;11.084;2023-06-22T05:01:59;5.93;;;5.32;;
14686;SDS011;7431;49.440;11.084;2023-06-22T05:04:26;7.28;;;5.55;;
14686;SDS011;7431;49.440;11.084;2023-06-22T05:06:53;8.32;;;6.03;;
14686;SDS011;7431;49.440;11.084;2023-06-22T05:09:20;5.68;;;5.00;;
14686;SDS011;7431;49.440;11.084;2023-06-22T05:11:47;6.10;;;5.30;;
14686;SDS011;7431;49.440;11.084;2023-06-22T05:14:13;6.07;;;5.15;;
14686;SDS011;7431;49.440;11.084;2023-06-22T05:16:40;5.28;;;4.78;;
14686;SDS011;7431;49.440;11.084;2023-06-22T05:19:07;7.72;;;5.57;;
14686;SDS011;7431;49.440;11.084;2023-06-22T05:21:33;6.90;;;4.97;;
14686;SDS011;7431;49.440;11.084;2023-06-22T05:23:59;5.63;;;4.85;;
14686;SDS011;7431;49.440;11.084;2023-06-22T05:26:27;6.28;;;5.10;;
14686;SDS011;7431;49.440;11.084;2023-06-22T05:28:56;5.22;;;4.72;;
14686;SDS011;7431;49.440;11.084;2023-06-22T05:31:22;5.95;;;5.28;;
14686;SDS011;7431;49.440;11.084;2023-06-22T05:33:48;5.97;;;4.60;;
14686;SDS011;7431;49.440;11.084;2023-06-22T05:36:17;5.90;;;4.95;;
14686;SDS011;7431;49.440;11.084;2023-06-22T05:38:49;7.40;;;4.90;;
14686;SDS011;7431;49.440;11.084;2023-06-22T05:41:15;4.72;;;4.22;;
14686;SDS011;7431;49.440;11.084;2023-06-22T05:43:41;6.20;;;5.03;;
14686;SDS011;7431;49.440;11.084;2023-06-22T05:46:07;5.25;;;4.75;;
14686;SDS011;7431;49.440;11.084;2023-06-22T05:48:33;4.90;;;4.47;;
14686;SDS011;7431;49.440;11.084;2023-06-22T05:50:59;6.30;;;4.75;;
14686;SDS011;7431;49.440;11.084;2023-06-22T05:53:25;5.18;;;4.68;;
14686;SDS011;7431;49.440;11.084;2023-06-22T05:55:51;8.30;;;5.22;;
14686;SDS011;7431;49.440;11.084;2023-06-22T05:58:17;5.68;;;5.07;;
14686;SDS011;7431;49.440;11.084;2023-06-22T06:00:43;5.50;;;4.88;;
14686;SDS011;7431;49.440;11.084;2023-06-22T06:03:10;5.20;;;4.68;;
14686;SDS011;7431;49.440;11.084;2023-06-22T06:05:36;5.53;;;5.03;;
14686;SDS011;7431;49.440;11.084;2023-06-22T06:08:03;5.70;;;4.32;;
14686;SDS011;7431;49.440;11.084;2023-06-22T06:10:30;5.53;;;5.03;;
14686;SDS011;7431;49.440;11.084;2023-06-22T06:12:57;6.53;;;5.20;;
14686;SDS011;7431;49.440;11.084;2023-06-22T06:15:23;5.65;;;5.13;;
14686;SDS011;7431;49.440;11.084;2023-06-22T06:17:49;5.25;;;4.75;;
14686;SDS011;7431;49.440;11.084;2023-06-22T06:20:17;5.88;;;4.68;;
14686;SDS011;7431;49.440;11.084;2023-06-22T06:22:43;4.90;;;4.50;;
14686;SDS011;7431;49.440;11.084;2023-06-22T06:25:09;6.65;;;4.93;;
14686;SDS011;7431;49.440;11.084;2023-06-22T06:27:40;5.88;;;5.07;;
14686;SDS011;7431;49.440;11.084;2023-06-22T06:30:06;5.72;;;5.10;;
14686;SDS011;7431;49.440;11.084;2023-06-22T06:32:33;5.55;;;4.72;;
14686;SDS011;7431;49.440;11.084;2023-06-22T06:34:59;6.88;;;5.10;;
14686;SDS011;7431;49.440;11.084;2023-06-22T06:37:25;4.93;;;4.45;;
14686;SDS011;7431;49.440;11.084;2023-06-22T06:39:51;5.97;;;4.90;;
14686;SDS011;7431;49.440;11.084;2023-06-22T06:42:17;6.63;;;4.93;;
14686;SDS011;7431;49.440;11.084;2023-06-22T06:44:44;4.80;;;4.30;;
14686;SDS011;7431;49.440;11.084;2023-06-22T06:47:10;6.18;;;4.25;;
14686;SDS011;7431;49.440;11.084;2023-06-22T06:49:36;5.95;;;4.68;;
14686;SDS011;7431;49.440;11.084;2023-06-22T06:52:02;5.10;;;4.55;;
14686;SDS011;7431;49.440;11.084;2023-06-22T06:54:28;4.47;;;4.07;;
14686;SDS011;7431;49.440;11.084;2023-06-22T06:56:54;4.95;;;4.25;;
14686;SDS011;7431;49.440;11.084;2023-06-22T06:59:20;5.47;;;4.70;;
14686;SDS011;7431;49.440;11.084;2023-06-22T07:01:46;4.70;;;4.22;;
14686;SDS011;7431;49.440;11.084;2023-06-22T07:04:13;5.03;;;4.30;;
14686;SDS011;7431;49.440;11.084;2023-06-22T07:06:39;4.40;;;4.00;;
14686;SDS011;7431;49.440;11.084;2023-06-22T07:09:05;3.88;;;3.50;;
14686;SDS011;7431;49.440;11.084;2023-06-22T07:11:31;5.70;;;4.75;;
14686;SDS011;7431;49.440;11.084;2023-06-22T07:13:57;7.13;;;4.10;;
14686;SDS011;7431;49.440;11.084;2023-06-22T07:16:23;4.55;;;4.00;;
14686;SDS011;7431;49.440;11.084;2023-06-22T07:18:50;4.15;;;3.75;;
14686;SDS011;7431;49.440;11.084;2023-06-22T07:21:16;5.78;;;4.47;;
14686;SDS011;7431;49.440;11.084;2023-06-22T07:23:42;5.85;;;3.60;;
14686;SDS011;7431;49.440;11.084;2023-06-22T07:26:08;5.00;;;3.80;;
14686;SDS011;7431;49.440;11.084;2023-06-22T07:28:34;5.57;;;3.95;;
14686;SDS011;7431;49.440;11.084;2023-06-22T07:31:03;5.18;;;3.60;;
14686;SDS011;7431;49.440;11.084;2023-06-22T07:33:29;4.13;;;3.72;;
14686;SDS011;7431;49.440;11.084;2023-06-22T07:35:55;6.13;;;4.20;;
14686;SDS011;7431;49.440;11.084;2023-06-22T07:38:21;4.68;;;3.67;;
14686;SDS011;7431;49.440;11.084;2023-06-22T07:40:47;6.18;;;3.88;;
14686;SDS011;7431;49.440;11.084;2023-06-22T07:43:13;5.65;;;4.00;;
14686;SDS011;7431;49.440;11.084;2023-06-22T07:45:39;4.10;;;3.70;;
14686;SDS011;7431;49.440;11.084;2023-06-22T07:48:07;6.22;;;3.78;;
14686;SDS011;7431;49.440;11.084;2023-06-22T07:50:33;4.05;;;3.42;;
14686;SDS011;7431;49.440;11.084;2023-06-22T07:52:59;4.40;;;3.92;;
14686;SDS011;7431;49.440;11.084;2023-06-22T07:55:25;3.78;;;3.38;;
14686;SDS011;7431;49.440;11.084;2023-06-22T07:57:51;4.30;;;3.40;;
14686;SDS011;7431;49.440;11.084;2023-06-22T08:00:17;6.22;;;3.38;;
14686;SDS011;7431;49.440;11.084;2023-06-22T08:02:44;3.45;;;3.15;;
14686;SDS011;7431;49.440;11.084;2023-06-22T08:05:11;3.67;;;3.22;;
14686;SDS011;7431;49.440;11.084;2023-06-22T08:07:37;4.15;;;3.47;;
14686;SDS011;7431;49.440;11.084;2023-06-22T08:10:09;4.93;;;3.50;;
14686;SDS011;7431;49.440;11.084;2023-06-22T08:12:35;4.90;;;3.60;;
14686;SDS011;7431;49.440;11.084;2023-06-22T08:15:01;3.50;;;3.20;;
14686;SDS011;7431;49.440;11.084;2023-06-22T08:17:28;4.75;;;3.03;;
14686;SDS011;7431;49.440;11.084;2023-06-22T08:19:54;4.18;;;3.78;;
14686;SDS011;7431;49.440;11.084;2023-06-22T08:22:20;5.20;;;3.70;;
14686;SDS011;7431;49.440;11.084;2023-06-22T08:24:46;5.88;;;3.85;;
14686;SDS011;7431;49.440;11.084;2023-06-22T08:27:12;3.58;;;3.28;;
14686;SDS011;7431;49.440;11.084;2023-06-22T08:29:38;6.05;;;3.45;;
14686;SDS011;7431;49.440;11.084;2023-06-22T08:32:04;5.13;;;3.65;;
14686;SDS011;7431;49.440;11.084;2023-06-22T08:34:31;4.88;;;3.88;;
14686;SDS011;7431;49.440;11.084;2023-06-22T08:36:57;4.47;;;3.28;;
14686;SDS011;7431;49.440;11.084;2023-06-22T08:39:23;3.65;;;3.35;;
14686;SDS011;7431;49.440;11.084;2023-06-22T08:41:49;3.83;;;3.33;;
14686;SDS011;7431;49.440;11.084;2023-06-22T08:44:17;3.83;;;3.42;;
14686;SDS011;7431;49.440;11.084;2023-06-22T08:46:43;5.05;;;3.40;;
14686;SDS011;7431;49.440;11.084;2023-06-22T08:49:09;5.43;;;3.28;;
14686;SDS011;7431;49.440;11.084;2023-06-22T08:51:35;4.88;;;3.15;;
14686;SDS011;7431;49.440;11.084;2023-06-22T08:54:02;3.83;;;3.40;;
14686;SDS011;7431;49.440;11.084;2023-06-22T08:56:28;5.70;;;3.30;;
14686;SDS011;7431;49.440;11.084;2023-06-22T08:58:54;4.13;;;3.72;;
14686;SDS011;7431;49.440;11.084;2023-06-22T09:01:20;6.43;;;3.63;;
14686;SDS011;7431;49.440;11.084;2023-06-22T09:03:46;3.50;;;3.13;;
14686;SDS011;7431;49.440;11.084;2023-06-22T09:06:19;3.45;;;3.15;;
14686;SDS011;7431;49.440;11.084;2023-06-22T09:08:45;3.83;;;3.20;;
14686;SDS011;7431;49.440;11.084;2023-06-22T09:11:11;6.40;;;3.40;;
14686;SDS011;7431;49.440;11.084;2023-06-22T09:13:38;3.67;;;3.22;;
14686;SDS011;7431;49.440;11.084;2023-06-22T09:16:04;6.85;;;3.08;;
14686;SDS011;7431;49.440;11.084;2023-06-22T09:18:30;6.35;;;3.90;;
14686;SDS011;7431;49.440;11.084;2023-06-22T09:20:56;4.22;;;3.00;;
14686;SDS011;7431;49.440;11.084;2023-06-22T09:23:22;7.22;;;3.63;;
14686;SDS011;7431;49.440;11.084;2023-06-22T09:25:48;5.53;;;3.15;;
14686;SDS011;7431;49.440;11.084;2023-06-22T09:28:14;5.82;;;3.45;;
14686;SDS011;7431;49.440;11.084;2023-06-22T09:30:42;5.32;;;3.60;;
14686;SDS011;7431;49.440;11.084;2023-06-22T09:33:09;3.90;;;3.50;;
14686;SDS011;7431;49.440;11.084;2023-06-22T09:35:35;5.53;;;3.30;;
14686;SDS011;7431;49.440;11.084;2023-06-22T09:38:01;4.28;;;3.38;;
14686;SDS011;7431;49.440;11.084;2023-06-22T09:40:27;4.57;;;3.30;;
14686;SDS011;7431;49.440;11.084;2023-06-22T09:42:53;4.80;;;3.50;;
14686;SDS011;7431;49.440;11.084;2023-06-22T09:45:19;9.57;;;3.55;;
14686;SDS011;7431;49.440;11.084;2023-06-22T09:47:45;4.68;;;3.60;;
14686;SDS011;7431;49.440;11.084;2023-06-22T09:50:11;5.30;;;3.60;;
14686;SDS011;7431;49.440;11.084;2023-06-22T09:52:37;6.30;;;4.10;;
14686;SDS011;7431;49.440;11.084;2023-06-22T09:55:03;7.50;;;3.83;;
14686;SDS011;7431;49.440;11.084;2023-06-22T09:57:29;12.25;;;4.15;;
14686;SDS011;7431;49.440;11.084;2023-06-22T09:59:55;9.13;;;4.72;;
14686;SDS011;7431;49.440;11.084;2023-06-22T10:02:21;4.25;;;3.70;;
14686;SDS011;7431;49.440;11.084;2023-06-22T10:04:50;4.85;;;3.22;;
14686;SDS011;7431;49.440;11.084;2023-06-22T10:07:16;6.82;;;4.30;;
14686;SDS011;7431;49.440;11.084;2023-06-22T10:09:42;6.40;;;3.85;;
14686;SDS011;7431;49.440;11.084;2023-06-22T10:12:08;6.63;;;3.80;;
14686;SDS011;7431;49.440;11.084;2023-06-22T10:14:37;5.68;;;4.00;;
14686;SDS011;7431;49.440;11.084;2023-06-22T10:17:03;5.68;;;4.18;;
14686;SDS011;7431;49.440;11.084;2023-06-22T10:19:32;4.50;;;3.78;;
14686;SDS011;7431;49.440;11.084;2023-06-22T10:21:58;4.68;;;3.90;;
14686;SDS011;7431;49.440;11.084;2023-06-22T10:24:24;7.63;;;4.18;;
14686;SDS011;7431;49.440;11.084;2023-06-22T10:26:50;4.78;;;3.92;;
14686;SDS011;7431;49.440;11.084;2023-06-22T10:29:16;4.15;;;3.70;;
14686;SDS011;7431;49.440;11.084;2023-06-22T10:31:42;4.20;;;3.40;;
14686;SDS011;7431;49.440;11.084;2023-06-22T10:34:08;6.15;;;3.80;;
14686;SDS011;7431;49.440;11.084;2023-06-22T10:36:34;6.82;;;4.97;;
14686;SDS011;7431;49.440;11.084;2023-06-22T10:39:00;6.63;;;4.00;;
14686;SDS011;7431;49.440;11.084;2023-06-22T10:41:27;4.93;;;3.70;;
14686;SDS011;7431;49.440;11.084;2023-06-22T10:43:55;6.90;;;4.22;;
14686;SDS011;7431;49.440;11.084;2023-06-22T10:46:21;7.13;;;4.13;;
14686;SDS011;7431;49.440;11.084;2023-06-22T10:48:47;5.40;;;3.70;;
14686;SDS011;7431;49.440;11.084;2023-06-22T10:51:13;9.32;;;4.47;;
14686;SDS011;7431;49.440;11.084;2023-06-22T10:53:39;5.20;;;3.90;;
14686;SDS011;7431;49.440;11.084;2023-06-22T10:56:05;5.32;;;3.97;;
14686;SDS011;7431;49.440;11.084;2023-06-22T10:58:31;4.70;;;3.90;;
14686;SDS011;7431;49.440;11.084;2023-06-22T11:00:57;6.32;;;4.30;;
14686;SDS011;7431;49.440;11.084;2023-06-22T11:03:24;6.43;;;3.67;;
14686;SDS011;7431;49.440;11.084;2023-06-22T11:05:50;8.30;;;4.05;;
14686;SDS011;7431;49.440;11.084;2023-06-22T11:08:16;4.88;;;3.85;;
14686;SDS011;7431;49.440;11.084;2023-06-22T11:10:42;4.72;;;4.03;;
14686;SDS011;7431;49.440;11.084;2023-06-22T11:13:08;4.47;;;3.88;;
14686;SDS011;7431;49.440;11.084;2023-06-22T11:15:34;7.88;;;3.97;;
14686;SDS011;7431;49.440;11.084;2023-06-22T11:18:00;6.80;;;4.43;;
14686;SDS011;7431;49.440;11.084;2023-06-22T11:20:30;5.90;;;4.05;;
14686;SDS011;7431;49.440;11.084;2023-06-22T11:22:56;4.47;;;4.03;;
14686;SDS011;7431;49.440;11.084;2023-06-22T11:25:22;8.73;;;4.50;;
14686;SDS011;7431;49.440;11.084;2023-06-22T11:27:48;4.25;;;3.85;;
14686;SDS011;7431;49.440;11.084;2023-06-22T11:30:14;6.32;;;4.00;;
14686;SDS011;7431;49.440;11.084;2023-06-22T11:32:40;5.20;;;3.53;;
14686;SDS011;7431;49.440;11.084;2023-06-22T11:35:06;5.05;;;3.67;;
14686;SDS011;7431;49.440;11.084;2023-06-22T11:37:32;4.80;;;3.50;;
14686;SDS011;7431;49.440;11.084;2023-06-22T11:39:58;5.85;;;3.95;;
14686;SDS011;7431;49.440;11.084;2023-06-22T11:42:24;6.47;;;4.32;;
14686;SDS011;7431;49.440;11.084;2023-06-22T11:44:50;6.72;;;4.10;;
14686;SDS011;7431;49.440;11.084;2023-06-22T11:47:16;5.00;;;4.25;;
14686;SDS011;7431;49.440;11.084;2023-06-22T11:49:42;10.48;;;4.47;;
14686;SDS011;7431;49.440;11.084;2023-06-22T11:52:08;6.82;;;3.83;;
14686;SDS011;7431;49.440;11.084;2023-06-22T11:54:35;5.25;;;3.70;;
14686;SDS011;7431;49.440;11.084;2023-06-22T11:57:00;7.60;;;4.20;;
14686;SDS011;7431;49.440;11.084;2023-06-22T11:59:27;7.47;;;4.07;;
14686;SDS011;7431;49.440;11.084;2023-06-22T12:01:55;6.85;;;4.25;;
14686;SDS011;7431;49.440;11.084;2023-06-22T12:04:21;7.25;;;3.80;;
14686;SDS011;7431;49.440;11.084;2023-06-22T12:06:47;4.15;;;3.45;;
14686;SDS011;7431;49.440;11.084;2023-06-22T12:09:13;7.18;;;4.05;;
14686;SDS011;7431;49.440;11.084;2023-06-22T12:11:39;5.03;;;4.22;;
14686;SDS011;7431;49.440;11.084;2023-06-22T12:14:05;4.65;;;4.03;;
14686;SDS011;7431;49.440;11.084;2023-06-22T12:16:31;5.65;;;3.90;;
14686;SDS011;7431;49.440;11.084;2023-06-22T12:18:57;8.27;;;4.20;;
14686;SDS011;7431;49.440;11.084;2023-06-22T12:21:23;6.53;;;4.13;;
14686;SDS011;7431;49.440;11.084;2023-06-22T12:23:49;8.65;;;4.55;;
14686;SDS011;7431;49.440;11.084;2023-06-22T12:26:15;6.53;;;3.90;;
14686;SDS011;7431;49.440;11.084;2023-06-22T12:28:41;4.35;;;3.53;;
14686;SDS011;7431;49.440;11.084;2023-06-22T12:31:07;6.13;;;4.22;;
14686;SDS011;7431;49.440;11.084;2023-06-22T12:33:33;9.27;;;4.50;;
14686;SDS011;7431;49.440;11.084;2023-06-22T12:35:59;8.55;;;4.35;;
14686;SDS011;7431;49.440;11.084;2023-06-22T12:38:25;6.13;;;4.00;;
14686;SDS011;7431;49.440;11.084;2023-06-22T12:40:51;8.48;;;3.95;;
14686;SDS011;7431;49.440;11.084;2023-06-22T12:43:18;8.60;;;4.28;;
14686;SDS011;7431;49.440;11.084;2023-06-22T12:45:44;6.68;;;3.90;;
14686;SDS011;7431;49.440;11.084;2023-06-22T12:48:10;8.68;;;4.65;;
14686;SDS011;7431;49.440;11.084;2023-06-22T12:50:36;5.68;;;4.47;;
14686;SDS011;7431;49.440;11.084;2023-06-22T12:53:02;10.77;;;4.70;;
14686;SDS011;7431;49.440;11.084;2023-06-22T12:55:29;5.63;;;3.90;;
14686;SDS011;7431;49.440;11.084;2023-06-22T12:57:55;8.15;;;4.28;;
14686;SDS011;7431;49.440;11.084;2023-06-22T13:00:21;8.52;;;4.53;;
14686;SDS011;7431;49.440;11.084;2023-06-22T13:02:47;8.68;;;4.40;;
14686;SDS011;7431;49.440;11.084;2023-06-22T13:05:13;4.70;;;4.15;;
14686;SDS011;7431;49.440;11.084;2023-06-22T13:07:39;6.43;;;4.60;;
14686;SDS011;7431;49.440;11.084;2023-06-22T13:10:07;8.35;;;4.35;;
14686;SDS011;7431;49.440;11.084;2023-06-22T13:12:33;7.25;;;4.50;;
14686;SDS011;7431;49.440;11.084;2023-06-22T13:14:59;6.10;;;3.95;;
14686;SDS011;7431;49.440;11.084;2023-06-22T13:17:25;4.75;;;4.25;;
14686;SDS011;7431;49.440;11.084;2023-06-22T13:19:51;10.35;;;4.75;;
14686;SDS011;7431;49.440;11.084;2023-06-22T13:24:53;5.57;;;3.70;;
14686;SDS011;7431;49.440;11.084;2023-06-22T13:27:19;5.55;;;3.97;;
14686;SDS011;7431;49.440;11.084;2023-06-22T13:29:45;6.18;;;4.68;;
14686;SDS011;7431;49.440;11.084;2023-06-22T13:32:11;6.25;;;3.85;;
14686;SDS011;7431;49.440;11.084;2023-06-22T13:34:37;5.88;;;4.35;;
14686;SDS011;7431;49.440;11.084;2023-06-22T13:37:03;6.95;;;4.47;;
14686;SDS011;7431;49.440;11.084;2023-06-22T13:39:29;8.75;;;4.13;;
14686;SDS011;7431;49.440;11.084;2023-06-22T13:41:55;7.63;;;4.35;;
14686;SDS011;7431;49.440;11.084;2023-06-22T13:44:21;4.50;;;4.03;;
14686;SDS011;7431;49.440;11.084;2023-06-22T13:46:47;7.25;;;4.05;;
14686;SDS011;7431;49.440;11.084;2023-06-22T13:49:13;8.07;;;3.75;;
14686;SDS011;7431;49.440;11.084;2023-06-22T13:51:39;5.10;;;4.20;;
14686;SDS011;7431;49.440;11.084;2023-06-22T13:54:05;8.05;;;4.43;;
14686;SDS011;7431;49.440;11.084;2023-06-22T13:56:32;6.90;;;4.03;;
14686;SDS011;7431;49.440;11.084;2023-06-22T13:58:58;5.75;;;4.03;;
14686;SDS011;7431;49.440;11.084;2023-06-22T14:01:24;10.30;;;4.53;;
14686;SDS011;7431;49.440;11.084;2023-06-22T14:03:50;7.88;;;4.50;;
14686;SDS011;7431;49.440;11.084;2023-06-22T14:06:16;7.82;;;4.80;;
14686;SDS011;7431;49.440;11.084;2023-06-22T14:08:42;6.65;;;4.57;;
14686;SDS011;7431;49.440;11.084;2023-06-22T14:11:08;9.02;;;4.32;;
14686;SDS011;7431;49.440;11.084;2023-06-22T14:13:34;10.05;;;4.57;;
14686;SDS011;7431;49.440;11.084;2023-06-22T14:16:03;9.00;;;4.47;;
14686;SDS011;7431;49.440;11.084;2023-06-22T14:18:29;6.63;;;3.90;;
14686;SDS011;7431;49.440;11.084;2023-06-22T14:20:55;10.43;;;4.45;;
14686;SDS011;7431;49.440;11.084;2023-06-22T14:23:21;5.05;;;4.20;;
14686;SDS011;7431;49.440;11.084;2023-06-22T14:25:47;7.05;;;4.15;;
14686;SDS011;7431;49.440;11.084;2023-06-22T14:28:13;6.55;;;4.65;;
14686;SDS011;7431;49.440;11.084;2023-06-22T14:30:39;7.32;;;4.75;;
14686;SDS011;7431;49.440;11.084;2023-06-22T14:33:05;8.02;;;4.13;;
14686;SDS011;7431;49.440;11.084;2023-06-22T14:35:31;6.05;;;4.22;;
14686;SDS011;7431;49.440;11.084;2023-06-22T14:37:57;8.65;;;3.88;;
14686;SDS011;7431;49.440;11.084;2023-06-22T14:40:23;6.68;;;4.75;;
14686;SDS011;7431;49.440;11.084;2023-06-22T14:42:49;8.85;;;5.18;;
14686;SDS011;7431;49.440;11.084;2023-06-22T14:45:15;5.55;;;4.25;;
14686;SDS011;7431;49.440;11.084;2023-06-22T14:47:41;8.52;;;4.00;;
14686;SDS011;7431;49.440;11.084;2023-06-22T14:50:07;7.57;;;4.68;;